sensor_id;sensor_type;location;lat;lon;timestamp;pressure;altitude;pressure_sealevel;temperature;humidity
11114;BME280;5610;52.154;9.198;2023-12-04T00:00:48;100939.41;;;0.46;100.00
11114;BME280;5610;52.154;9.198;2023-12-04T00:03:34;100932.25;;;0.58;100.00
11114;BME280;5610;52.154;9.198;2023-12-04T00:06:19;100928.94;;;0.45;100.00
11114;BME280;5610;52.154;9.198;2023-12-04T00:09:05;100916.75;;;0.42;100.00
11114;BME280;5610;52.154;9.198;2023-12-04T00:11:50;100909.84;;;0.35;100.00
11114;BME280;5610;52.154;9.198;2023-12-04T00:14:37;100897.63;;;0.37;100.00
11114;BME280;5610;52.154;9.198;2023-12-04T00:17:22;100901.47;;;0.15;100.00
11114;BME280;5610;52.154;9.198;2023-12-04T00:20:08;100899.47;;;0.31;100.00
11114;BME280;5610;52.154;9.198;2023-12-04T00:22:54;100884.59;;;0.31;100.00
11114;BME280;5610;52.154;9.198;2023-12-04T00:25:39;100889.16;;;0.18;100.00
11114;BME280;5610;52.154;9.198;2023-12-04T00:28:25;100884.84;;;0.16;100.00
11114;BME280;5610;52.154;9.198;2023-12-04T00:31:14;100877.69;;;0.25;100.00
11114;BME280;5610;52.154;9.198;2023-12-04T00:33:59;100867.16;;;0.30;100.00
11114;BME280;5610;52.154;9.198;2023-12-04T00:36:44;100875.84;;;0.32;100.00
11114;BME280;5610;52.154;9.198;2023-12-04T00:39:29;100870.53;;;0.37;100.00
11114;BME280;5610;52.154;9.198;2023-12-04T00:42:14;100864.44;;;0.36;100.00
11114;BME280;5610;52.154;9.198;2023-12-04T00:45:00;100857.81;;;0.12;100.00
11114;BME280;5610;52.154;9.198;2023-12-04T00:47:46;100859.34;;;0.25;100.00
11114;BME280;5610;52.154;9.198;2023-12-04T00:50:31;100857.59;;;0.26;100.00
11114;BME280;5610;52.154;9.198;2023-12-04T00:53:17;100847.06;;;0.27;100.00
11114;BME280;5610;52.154;9.198;2023-12-04T00:56:02;100847.22;;;0.18;100.00
11114;BME280;5610;52.154;9.198;2023-12-04T00:58:47;100846.56;;;0.07;100.00
11114;BME280;5610;52.154;9.198;2023-12-04T01:01:33;100838.75;;;0.03;100.00
11114;BME280;5610;52.154;9.198;2023-12-04T01:04:19;100824.03;;;-0.06;100.00
11114;BME280;5610;52.154;9.198;2023-12-04T01:07:05;100828.13;;;0.12;100.00
11114;BME280;5610;52.154;9.198;2023-12-04T01:09:50;100830.72;;;0.15;100.00
11114;BME280;5610;52.154;9.198;2023-12-04T01:12:35;100830.84;;;0.07;100.00
11114;BME280;5610;52.154;9.198;2023-12-04T01:15:20;100827.22;;;0.13;100.00
11114;BME280;5610;52.154;9.198;2023-12-04T01:18:05;100814.97;;;0.16;100.00
11114;BME280;5610;52.154;9.198;2023-12-04T01:20:52;100814.97;;;0.16;100.00
11114;BME280;5610;52.154;9.198;2023-12-04T01:23:37;100821.84;;;0.23;100.00
11114;BME280;5610;52.154;9.198;2023-12-04T01:26:22;100813.22;;;0.14;100.00
11114;BME280;5610;52.154;9.198;2023-12-04T01:29:07;100813.22;;;0.14;100.00
11114;BME280;5610;52.154;9.198;2023-12-04T01:31:52;100807.13;;;0.15;100.00
11114;BME280;5610;52.154;9.198;2023-12-04T01:34:37;100803.50;;;0.23;100.00
11114;BME280;5610;52.154;9.198;2023-12-04T01:37:24;100796.63;;;0.16;100.00
11114;BME280;5610;52.154;9.198;2023-12-04T01:40:10;100786.88;;;0.24;100.00
11114;BME280;5610;52.154;9.198;2023-12-04T01:42:55;100783.66;;;0.09;100.00
11114;BME280;5610;52.154;9.198;2023-12-04T01:45:41;100780.84;;;0.19;100.00
11114;BME280;5610;52.154;9.198;2023-12-04T01:48:26;100786.16;;;0.15;100.00
11114;BME280;5610;52.154;9.198;2023-12-04T01:51:13;100780.63;;;0.32;100.00
11114;BME280;5610;52.154;9.198;2023-12-04T01:54:03;100789.56;;;0.21;100.00
11114;BME280;5610;52.154;9.198;2023-12-04T01:56:49;100781.34;;;0.40;100.00
11114;BME280;5610;52.154;9.198;2023-12-04T01:59:35;100777.84;;;0.41;100.00
11114;BME280;5610;52.154;9.198;2023-12-04T02:02:21;100778.97;;;0.26;100.00
11114;BME280;5610;52.154;9.198;2023-12-04T02:05:07;100784.13;;;0.32;100.00
11114;BME280;5610;52.154;9.198;2023-12-04T02:07:53;100779.06;;;0.20;100.00
11114;BME280;5610;52.154;9.198;2023-12-04T02:10:40;100770.94;;;0.37;100.00
11114;BME280;5610;52.154;9.198;2023-12-04T02:13:26;100772.31;;;0.56;100.00
11114;BME280;5610;52.154;9.198;2023-12-04T02:16:12;100768.66;;;0.66;100.00
11114;BME280;5610;52.154;9.198;2023-12-04T02:19:00;100769.84;;;0.48;100.00
11114;BME280;5610;52.154;9.198;2023-12-04T02:21:45;100764.69;;;0.44;100.00
11114;BME280;5610;52.154;9.198;2023-12-04T02:24:31;100760.97;;;0.55;100.00
11114;BME280;5610;52.154;9.198;2023-12-04T02:27:22;100764.41;;;0.59;100.00
11114;BME280;5610;52.154;9.198;2023-12-04T02:30:11;100761.38;;;0.80;100.00
11114;BME280;5610;52.154;9.198;2023-12-04T02:32:58;100753.03;;;0.60;100.00
11114;BME280;5610;52.154;9.198;2023-12-04T02:35:45;100747.66;;;0.66;100.00
11114;BME280;5610;52.154;9.198;2023-12-04T02:38:31;100747.78;;;0.60;100.00
11114;BME280;5610;52.154;9.198;2023-12-04T02:41:18;100751.03;;;0.73;100.00
11114;BME280;5610;52.154;9.198;2023-12-04T02:44:03;100739.44;;;0.83;100.00
11114;BME280;5610;52.154;9.198;2023-12-04T02:46:48;100746.56;;;0.76;100.00
11114;BME280;5610;52.154;9.198;2023-12-04T02:49:34;100731.53;;;0.85;100.00
11114;BME280;5610;52.154;9.198;2023-12-04T02:52:19;100736.91;;;0.80;100.00
11114;BME280;5610;52.154;9.198;2023-12-04T02:55:05;100722.94;;;0.79;100.00
11114;BME280;5610;52.154;9.198;2023-12-04T02:57:51;100722.50;;;0.58;100.00
11114;BME280;5610;52.154;9.198;2023-12-04T03:00:37;100729.28;;;0.68;100.00
11114;BME280;5610;52.154;9.198;2023-12-04T03:03:22;100731.09;;;0.64;100.00
11114;BME280;5610;52.154;9.198;2023-12-04T03:06:07;100715.09;;;0.76;100.00
11114;BME280;5610;52.154;9.198;2023-12-04T03:08:52;100712.28;;;0.87;100.00
11114;BME280;5610;52.154;9.198;2023-12-04T03:11:39;100704.47;;;0.84;100.00
11114;BME280;5610;52.154;9.198;2023-12-04T03:14:25;100703.50;;;0.88;100.00
11114;BME280;5610;52.154;9.198;2023-12-04T03:17:11;100699.97;;;0.89;100.00
11114;BME280;5610;52.154;9.198;2023-12-04T03:19:56;100705.31;;;0.86;100.00
11114;BME280;5610;52.154;9.198;2023-12-04T03:22:41;100702.84;;;0.78;100.00
11114;BME280;5610;52.154;9.198;2023-12-04T03:25:26;100690.44;;;0.87;100.00
11114;BME280;5610;52.154;9.198;2023-12-04T03:28:11;100689.50;;;0.89;100.00
11114;BME280;5610;52.154;9.198;2023-12-04T03:30:58;100682.44;;;0.93;100.00
11114;BME280;5610;52.154;9.198;2023-12-04T03:33:43;100682.09;;;1.08;100.00
11114;BME280;5610;52.154;9.198;2023-12-04T03:36:28;100671.44;;;1.16;100.00
11114;BME280;5610;52.154;9.198;2023-12-04T03:39:14;100673.09;;;1.18;100.00
11114;BME280;5610;52.154;9.198;2023-12-04T03:41:59;100663.59;;;1.13;100.00
11114;BME280;5610;52.154;9.198;2023-12-04T03:44:44;100656.63;;;1.13;100.00
11114;BME280;5610;52.154;9.198;2023-12-04T03:47:30;100664.63;;;1.07;100.00
11114;BME280;5610;52.154;9.198;2023-12-04T03:50:15;100655.91;;;1.06;100.00
11114;BME280;5610;52.154;9.198;2023-12-04T03:53:01;100651.28;;;1.16;100.00
11114;BME280;5610;52.154;9.198;2023-12-04T03:55:46;100648.63;;;1.18;100.00
11114;BME280;5610;52.154;9.198;2023-12-04T03:58:31;100645.28;;;1.11;100.00
11114;BME280;5610;52.154;9.198;2023-12-04T04:01:17;100642.47;;;1.20;100.00
11114;BME280;5610;52.154;9.198;2023-12-04T04:04:03;100638.03;;;1.22;100.00
11114;BME280;5610;52.154;9.198;2023-12-04T04:06:49;100631.66;;;1.32;100.00
11114;BME280;5610;52.154;9.198;2023-12-04T04:09:34;100626.44;;;1.31;100.00
11114;BME280;5610;52.154;9.198;2023-12-04T04:12:19;100622.09;;;1.30;100.00
11114;BME280;5610;52.154;9.198;2023-12-04T04:15:05;100619.53;;;1.28;100.00
11114;BME280;5610;52.154;9.198;2023-12-04T04:17:50;100623.16;;;1.23;100.00
11114;BME280;5610;52.154;9.198;2023-12-04T04:20:37;100617.75;;;1.29;100.00
11114;BME280;5610;52.154;9.198;2023-12-04T04:23:22;100625.81;;;1.21;100.00
11114;BME280;5610;52.154;9.198;2023-12-04T04:26:07;100620.44;;;1.26;100.00
11114;BME280;5610;52.154;9.198;2023-12-04T04:28:52;100616.63;;;1.39;100.00
11114;BME280;5610;52.154;9.198;2023-12-04T04:31:38;100605.41;;;1.32;100.00
11114;BME280;5610;52.154;9.198;2023-12-04T04:34:23;100601.81;;;1.36;100.00
11114;BME280;5610;52.154;9.198;2023-12-04T04:37:09;100605.53;;;1.26;100.00
11114;BME280;5610;52.154;9.198;2023-12-04T04:39:55;100599.34;;;1.30;100.00
11114;BME280;5610;52.154;9.198;2023-12-04T04:42:40;100595.53;;;1.44;100.00
11114;BME280;5610;52.154;9.198;2023-12-04T04:45:25;100597.25;;;1.45;100.00
11114;BME280;5610;52.154;9.198;2023-12-04T04:48:10;100599.06;;;1.43;100.00
11114;BME280;5610;52.154;9.198;2023-12-04T04:50:56;100595.56;;;1.42;100.00
11114;BME280;5610;52.154;9.198;2023-12-04T04:53:42;100600.09;;;1.35;100.00
11114;BME280;5610;52.154;9.198;2023-12-04T04:56:28;100594.69;;;1.42;100.00
11114;BME280;5610;52.154;9.198;2023-12-04T04:59:13;100589.88;;;1.59;100.00
11114;BME280;5610;52.154;9.198;2023-12-04T05:01:58;100589.81;;;1.60;100.00
11114;BME280;5610;52.154;9.198;2023-12-04T05:04:43;100585.41;;;1.62;100.00
11114;BME280;5610;52.154;9.198;2023-12-04T05:07:28;100592.94;;;1.76;100.00
11114;BME280;5610;52.154;9.198;2023-12-04T05:10:15;100591.94;;;1.80;100.00
11114;BME280;5610;52.154;9.198;2023-12-04T05:13:00;100578.00;;;1.78;100.00
11114;BME280;5610;52.154;9.198;2023-12-04T05:15:45;100580.72;;;1.74;100.00
11114;BME280;5610;52.154;9.198;2023-12-04T05:18:30;100585.16;;;1.72;100.00
11114;BME280;5610;52.154;9.198;2023-12-04T05:21:16;100579.75;;;1.78;100.00
11114;BME280;5610;52.154;9.198;2023-12-04T05:24:01;100573.56;;;1.80;100.00
11114;BME280;5610;52.154;9.198;2023-12-04T05:26:48;100567.03;;;1.62;100.00
11114;BME280;5610;52.154;9.198;2023-12-04T05:29:33;100570.47;;;1.64;100.00
11114;BME280;5610;52.154;9.198;2023-12-04T05:32:18;100575.53;;;1.72;100.00
11114;BME280;5610;52.154;9.198;2023-12-04T05:35:05;100567.03;;;1.62;100.00
11114;BME280;5610;52.154;9.198;2023-12-04T05:37:50;100554.06;;;1.55;100.00
11114;BME280;5610;52.154;9.198;2023-12-04T05:40:35;100556.19;;;1.42;100.00
11114;BME280;5610;52.154;9.198;2023-12-04T05:43:22;100543.91;;;1.43;100.00
11114;BME280;5610;52.154;9.198;2023-12-04T05:46:07;100548.25;;;1.44;100.00
11114;BME280;5610;52.154;9.198;2023-12-04T05:48:53;100543.06;;;1.42;100.00
11114;BME280;5610;52.154;9.198;2023-12-04T05:51:38;100548.31;;;1.41;100.00
11114;BME280;5610;52.154;9.198;2023-12-04T05:54:23;100542.97;;;1.45;100.00
11114;BME280;5610;52.154;9.198;2023-12-04T05:57:08;100546.75;;;1.68;100.00
11114;BME280;5610;52.154;9.198;2023-12-04T05:59:55;100539.16;;;1.57;100.00
11114;BME280;5610;52.154;9.198;2023-12-04T06:02:41;100538.75;;;1.72;100.00
11114;BME280;5610;52.154;9.198;2023-12-04T06:05:26;100551.78;;;1.75;100.00
11114;BME280;5610;52.154;9.198;2023-12-04T06:08:11;100545.88;;;1.67;100.00
11114;BME280;5610;52.154;9.198;2023-12-04T06:10:56;100537.63;;;1.81;100.00
11114;BME280;5610;52.154;9.198;2023-12-04T06:13:41;100542.81;;;1.84;100.00
11114;BME280;5610;52.154;9.198;2023-12-04T06:16:28;100547.41;;;1.76;100.00
11114;BME280;5610;52.154;9.198;2023-12-04T06:19:13;100536.19;;;1.71;100.00
11114;BME280;5610;52.154;9.198;2023-12-04T06:21:58;100532.00;;;1.62;100.00
11114;BME280;5610;52.154;9.198;2023-12-04T06:24:44;100526.44;;;1.74;100.00
11114;BME280;5610;52.154;9.198;2023-12-04T06:27:30;100526.75;;;1.62;100.00
11114;BME280;5610;52.154;9.198;2023-12-04T06:30:16;100528.56;;;1.60;100.00
11114;BME280;5610;52.154;9.198;2023-12-04T06:33:03;100533.00;;;1.58;100.00
11114;BME280;5610;52.154;9.198;2023-12-04T06:35:49;100524.06;;;1.65;100.00
11114;BME280;5610;52.154;9.198;2023-12-04T06:38:39;100524.06;;;1.65;100.00
11114;BME280;5610;52.154;9.198;2023-12-04T06:41:25;100532.09;;;1.59;100.00
11114;BME280;5610;52.154;9.198;2023-12-04T06:44:11;100524.88;;;1.67;100.00
11114;BME280;5610;52.154;9.198;2023-12-04T06:47:00;100523.16;;;1.66;100.00
11114;BME280;5610;52.154;9.198;2023-12-04T06:49:46;100520.63;;;1.63;100.00
11114;BME280;5610;52.154;9.198;2023-12-04T06:52:32;100524.09;;;1.63;100.00
11114;BME280;5610;52.154;9.198;2023-12-04T06:55:17;100523.25;;;1.63;100.00
11114;BME280;5610;52.154;9.198;2023-12-04T06:58:02;100533.75;;;1.63;100.00
11114;BME280;5610;52.154;9.198;2023-12-04T07:00:47;100535.69;;;1.55;100.00
11114;BME280;5610;52.154;9.198;2023-12-04T07:03:32;100523.25;;;1.61;100.00
11114;BME280;5610;52.154;9.198;2023-12-04T07:06:19;100532.63;;;1.72;100.00
11114;BME280;5610;52.154;9.198;2023-12-04T07:09:04;100531.28;;;1.57;100.00
11114;BME280;5610;52.154;9.198;2023-12-04T07:11:51;100536.25;;;1.68;100.00
11114;BME280;5610;52.154;9.198;2023-12-04T07:14:36;100536.72;;;1.82;100.00
11114;BME280;5610;52.154;9.198;2023-12-04T07:17:21;100543.03;;;1.76;100.00
11114;BME280;5610;52.154;9.198;2023-12-04T07:20:06;100535.69;;;1.87;100.00
11114;BME280;5610;52.154;9.198;2023-12-04T07:22:53;100532.00;;;1.95;100.00
11114;BME280;5610;52.154;9.198;2023-12-04T07:25:38;100532.00;;;1.95;100.00
11114;BME280;5610;52.154;9.198;2023-12-04T07:28:23;100539.59;;;2.05;100.00
11114;BME280;5610;52.154;9.198;2023-12-04T07:31:09;100535.09;;;2.09;100.00
11114;BME280;5610;52.154;9.198;2023-12-04T07:33:55;100528.22;;;2.05;100.00
11114;BME280;5610;52.154;9.198;2023-12-04T07:36:40;100533.34;;;2.09;100.00
11114;BME280;5610;52.154;9.198;2023-12-04T07:39:28;100529.00;;;2.08;100.00
11114;BME280;5610;52.154;9.198;2023-12-04T07:42:14;100529.78;;;2.12;100.00
11114;BME280;5610;52.154;9.198;2023-12-04T07:44:59;100531.84;;;2.01;100.00
11114;BME280;5610;52.154;9.198;2023-12-04T07:47:44;100534.63;;;1.95;100.00
11114;BME280;5610;52.154;9.198;2023-12-04T07:50:29;100530.66;;;2.11;100.00
11114;BME280;5610;52.154;9.198;2023-12-04T07:53:14;100539.16;;;2.20;100.00
11114;BME280;5610;52.154;9.198;2023-12-04T07:56:02;100536.38;;;2.25;100.00
11114;BME280;5610;52.154;9.198;2023-12-04T07:58:48;100533.41;;;2.37;100.00
11114;BME280;5610;52.154;9.198;2023-12-04T08:01:33;100532.47;;;2.40;100.00
11114;BME280;5610;52.154;9.198;2023-12-04T08:04:19;100522.75;;;2.42;100.00
11114;BME280;5610;52.154;9.198;2023-12-04T08:07:04;100517.63;;;2.37;100.00
11114;BME280;5610;52.154;9.198;2023-12-04T08:09:49;100516.72;;;2.38;100.00
11114;BME280;5610;52.154;9.198;2023-12-04T08:12:35;100516.63;;;2.41;100.00
11114;BME280;5610;52.154;9.198;2023-12-04T08:15:21;100504.25;;;2.45;100.00
11114;BME280;5610;52.154;9.198;2023-12-04T08:18:06;100511.63;;;2.32;100.00
11114;BME280;5610;52.154;9.198;2023-12-04T08:20:51;100500.63;;;2.49;100.00
11114;BME280;5610;52.154;9.198;2023-12-04T08:23:37;100497.25;;;2.44;100.00
11114;BME280;5610;52.154;9.198;2023-12-04T08:26:22;100492.81;;;2.46;100.00
11114;BME280;5610;52.154;9.198;2023-12-04T08:29:09;100497.94;;;2.51;100.00
11114;BME280;5610;52.154;9.198;2023-12-04T08:31:55;100491.94;;;2.47;100.00
11114;BME280;5610;52.154;9.198;2023-12-04T08:34:39;100493.34;;;2.57;100.00
11114;BME280;5610;52.154;9.198;2023-12-04T08:37:25;100496.97;;;2.53;100.00
11114;BME280;5610;52.154;9.198;2023-12-04T08:40:11;100502.81;;;2.63;100.00
11114;BME280;5610;52.154;9.198;2023-12-04T08:42:56;100488.56;;;2.70;100.00
11114;BME280;5610;52.154;9.198;2023-12-04T08:45:43;100492.63;;;2.80;100.00
11114;BME280;5610;52.154;9.198;2023-12-04T08:48:28;100484.06;;;2.73;100.00
11114;BME280;5610;52.154;9.198;2023-12-04T08:51:17;100474.19;;;2.80;100.00
11114;BME280;5610;52.154;9.198;2023-12-04T08:54:03;100474.97;;;2.84;100.00
11114;BME280;5610;52.154;9.198;2023-12-04T08:56:48;100476.44;;;2.92;100.00
11114;BME280;5610;52.154;9.198;2023-12-04T08:59:34;100468.59;;;2.91;100.00
11114;BME280;5610;52.154;9.198;2023-12-04T09:02:20;100473.66;;;2.97;100.00
11114;BME280;5610;52.154;9.198;2023-12-04T09:05:06;100466.31;;;3.07;100.00
11114;BME280;5610;52.154;9.198;2023-12-04T09:07:51;100464.66;;;3.04;100.00
11114;BME280;5610;52.154;9.198;2023-12-04T09:10:36;100464.47;;;3.10;100.00
11114;BME280;5610;52.154;9.198;2023-12-04T09:13:22;100464.47;;;3.09;100.00
11114;BME280;5610;52.154;9.198;2023-12-04T09:16:07;100457.25;;;3.15;100.00
11114;BME280;5610;52.154;9.198;2023-12-04T09:18:54;100463.97;;;3.24;100.00
11114;BME280;5610;52.154;9.198;2023-12-04T09:21:40;100457.69;;;3.28;100.00
11114;BME280;5610;52.154;9.198;2023-12-04T09:24:24;100463.53;;;3.36;100.00
11114;BME280;5610;52.154;9.198;2023-12-04T09:27:11;100454.56;;;3.42;100.00
11114;BME280;5610;52.154;9.198;2023-12-04T09:29:56;100450.69;;;3.52;100.00
11114;BME280;5610;52.154;9.198;2023-12-04T09:32:41;100454.78;;;3.61;100.00
11114;BME280;5610;52.154;9.198;2023-12-04T09:35:28;100452.91;;;3.64;100.00
11114;BME280;5610;52.154;9.198;2023-12-04T09:38:13;100445.13;;;3.61;100.00
11114;BME280;5610;52.154;9.198;2023-12-04T09:40:59;100431.13;;;3.59;100.00
11114;BME280;5610;52.154;9.198;2023-12-04T09:43:45;100426.53;;;3.64;100.00
11114;BME280;5610;52.154;9.198;2023-12-04T09:46:31;100433.31;;;3.71;100.00
11114;BME280;5610;52.154;9.198;2023-12-04T09:49:17;100435.50;;;3.83;100.00
11114;BME280;5610;52.154;9.198;2023-12-04T09:52:04;100433.72;;;3.61;100.00
11114;BME280;5610;52.154;9.198;2023-12-04T09:54:50;100427.13;;;3.72;100.00
11114;BME280;5610;52.154;9.198;2023-12-04T09:57:35;100425.59;;;3.67;100.00
11114;BME280;5610;52.154;9.198;2023-12-04T10:00:21;100416.66;;;3.71;100.00
11114;BME280;5610;52.154;9.198;2023-12-04T10:03:06;100413.78;;;3.77;100.00
11114;BME280;5610;52.154;9.198;2023-12-04T10:05:53;100414.97;;;3.92;100.00
11114;BME280;5610;52.154;9.198;2023-12-04T10:08:40;100403.13;;;4.03;100.00
11114;BME280;5610;52.154;9.198;2023-12-04T10:11:26;100400.97;;;4.13;100.00
11114;BME280;5610;52.154;9.198;2023-12-04T10:14:15;100395.63;;;4.14;100.00
11114;BME280;5610;52.154;9.198;2023-12-04T10:17:14;100397.94;;;4.24;100.00
11114;BME280;5610;52.154;9.198;2023-12-04T10:20:04;100387.31;;;4.25;100.00
11114;BME280;5610;52.154;9.198;2023-12-04T10:22:55;100385.72;;;4.21;97.20
11114;BME280;5610;52.154;9.198;2023-12-04T10:25:42;100382.28;;;4.19;95.13
11114;BME280;5610;52.154;9.198;2023-12-04T10:28:28;100380.28;;;4.26;96.11
11114;BME280;5610;52.154;9.198;2023-12-04T10:31:13;100381.84;;;4.30;98.64
11114;BME280;5610;52.154;9.198;2023-12-04T10:34:02;100360.88;;;4.27;98.44
11114;BME280;5610;52.154;9.198;2023-12-04T10:36:50;100353.22;;;4.21;98.41
11114;BME280;5610;52.154;9.198;2023-12-04T10:39:45;100354.06;;;4.21;100.00
11114;BME280;5610;52.154;9.198;2023-12-04T10:42:33;100355.84;;;4.21;100.00
11114;BME280;5610;52.154;9.198;2023-12-04T10:45:18;100345.44;;;4.18;100.00
11114;BME280;5610;52.154;9.198;2023-12-04T10:48:06;100335.91;;;4.35;99.50
11114;BME280;5610;52.154;9.198;2023-12-04T10:50:52;100337.94;;;4.29;100.00
11114;BME280;5610;52.154;9.198;2023-12-04T10:53:37;100333.97;;;4.19;100.00
11114;BME280;5610;52.154;9.198;2023-12-04T10:56:28;100337.75;;;4.11;100.00
11114;BME280;5610;52.154;9.198;2023-12-04T10:59:21;100332.59;;;4.08;100.00
11114;BME280;5610;52.154;9.198;2023-12-04T11:02:16;100339.41;;;3.92;100.00
11114;BME280;5610;52.154;9.198;2023-12-04T11:05:07;100328.16;;;3.87;100.00
11114;BME280;5610;52.154;9.198;2023-12-04T11:07:58;100315.81;;;3.66;100.00
11114;BME280;5610;52.154;9.198;2023-12-04T11:10:49;100303.00;;;3.56;100.00
11114;BME280;5610;52.154;9.198;2023-12-04T11:13:39;100294.66;;;3.69;100.00
11114;BME280;5610;52.154;9.198;2023-12-04T11:16:28;100286.13;;;3.84;100.00
11114;BME280;5610;52.154;9.198;2023-12-04T11:19:18;100286.28;;;3.57;100.00
11114;BME280;5610;52.154;9.198;2023-12-04T11:22:07;100276.09;;;3.48;100.00
11114;BME280;5610;52.154;9.198;2023-12-04T11:24:52;100273.31;;;3.53;100.00
11114;BME280;5610;52.154;9.198;2023-12-04T11:27:38;100268.53;;;3.63;100.00
11114;BME280;5610;52.154;9.198;2023-12-04T11:30:24;100266.13;;;3.56;100.00
11114;BME280;5610;52.154;9.198;2023-12-04T11:33:11;100268.44;;;3.42;100.00
11114;BME280;5610;52.154;9.198;2023-12-04T11:36:06;100260.31;;;3.48;100.00
11114;BME280;5610;52.154;9.198;2023-12-04T11:38:51;100257.44;;;3.54;100.00
11114;BME280;5610;52.154;9.198;2023-12-04T11:41:36;100260.31;;;3.70;100.00
11114;BME280;5610;52.154;9.198;2023-12-04T11:44:22;100254.88;;;3.53;100.00
11114;BME280;5610;52.154;9.198;2023-12-04T11:47:07;100249.72;;;3.72;100.00
11114;BME280;5610;52.154;9.198;2023-12-04T11:49:53;100249.41;;;3.79;100.00
11114;BME280;5610;52.154;9.198;2023-12-04T11:52:39;100245.44;;;3.91;100.00
11114;BME280;5610;52.154;9.198;2023-12-04T11:55:26;100233.19;;;3.90;100.00
11114;BME280;5610;52.154;9.198;2023-12-04T11:58:12;100232.13;;;3.94;100.00
11114;BME280;5610;52.154;9.198;2023-12-04T12:00:57;100227.78;;;3.93;97.56
11114;BME280;5610;52.154;9.198;2023-12-04T12:03:44;100227.53;;;3.99;99.58
11114;BME280;5610;52.154;9.198;2023-12-04T12:06:31;100225.34;;;3.89;98.14
11114;BME280;5610;52.154;9.198;2023-12-04T12:09:16;100219.69;;;3.98;97.21
11114;BME280;5610;52.154;9.198;2023-12-04T12:12:03;100216.06;;;4.00;94.83
11114;BME280;5610;52.154;9.198;2023-12-04T12:14:48;100207.34;;;3.98;97.33
11114;BME280;5610;52.154;9.198;2023-12-04T12:17:33;100212.56;;;4.00;95.83
11114;BME280;5610;52.154;9.198;2023-12-04T12:20:19;100203.34;;;3.90;95.21
11114;BME280;5610;52.154;9.198;2023-12-04T12:23:06;100198.78;;;3.93;95.92
11114;BME280;5610;52.154;9.198;2023-12-04T12:25:52;100194.44;;;3.92;98.27
11114;BME280;5610;52.154;9.198;2023-12-04T12:28:38;100190.69;;;3.98;99.64
11114;BME280;5610;52.154;9.198;2023-12-04T12:31:23;100186.81;;;4.06;99.48
11114;BME280;5610;52.154;9.198;2023-12-04T12:34:08;100183.50;;;4.01;97.48
11114;BME280;5610;52.154;9.198;2023-12-04T12:36:54;100186.72;;;4.08;100.00
11114;BME280;5610;52.154;9.198;2023-12-04T12:39:41;100175.59;;;4.01;97.73
11114;BME280;5610;52.154;9.198;2023-12-04T12:42:28;100177.38;;;4.01;100.00
11114;BME280;5610;52.154;9.198;2023-12-04T12:45:13;100166.47;;;4.10;100.00
11114;BME280;5610;52.154;9.198;2023-12-04T12:47:59;100166.56;;;4.07;100.00
11114;BME280;5610;52.154;9.198;2023-12-04T12:50:44;100175.34;;;4.07;100.00
11114;BME280;5610;52.154;9.198;2023-12-04T12:53:32;100157.88;;;4.05;100.00
11114;BME280;5610;52.154;9.198;2023-12-04T12:56:19;100168.16;;;4.11;100.00
11114;BME280;5610;52.154;9.198;2023-12-04T12:59:05;100167.38;;;4.09;100.00
11114;BME280;5610;52.154;9.198;2023-12-04T13:01:52;100157.63;;;4.11;100.00
11114;BME280;5610;52.154;9.198;2023-12-04T13:04:38;100161.38;;;4.05;100.00
11114;BME280;5610;52.154;9.198;2023-12-04T13:07:25;100155.94;;;4.08;100.00
11114;BME280;5610;52.154;9.198;2023-12-04T13:10:10;100152.75;;;4.02;100.00
11114;BME280;5610;52.154;9.198;2023-12-04T13:12:57;100153.72;;;3.99;97.23
11114;BME280;5610;52.154;9.198;2023-12-04T13:15:44;100145.41;;;4.08;100.00
11114;BME280;5610;52.154;9.198;2023-12-04T13:18:29;100136.53;;;4.11;99.65
11114;BME280;5610;52.154;9.198;2023-12-04T13:21:15;100135.41;;;4.17;100.00
11114;BME280;5610;52.154;9.198;2023-12-04T13:24:01;100132.09;;;4.11;100.00
11114;BME280;5610;52.154;9.198;2023-12-04T13:26:51;100124.19;;;4.11;100.00
11114;BME280;5610;52.154;9.198;2023-12-04T13:29:38;100128.69;;;4.09;100.00
11114;BME280;5610;52.154;9.198;2023-12-04T13:32:24;100121.97;;;4.02;100.00
11114;BME280;5610;52.154;9.198;2023-12-04T13:35:09;100111.28;;;4.05;100.00
11114;BME280;5610;52.154;9.198;2023-12-04T13:37:55;100112.88;;;4.09;100.00
11114;BME280;5610;52.154;9.198;2023-12-04T13:40:43;100108.50;;;4.08;100.00
11114;BME280;5610;52.154;9.198;2023-12-04T13:43:43;100113.13;;;4.03;100.00
11114;BME280;5610;52.154;9.198;2023-12-04T13:46:38;100110.88;;;3.94;100.00
11114;BME280;5610;52.154;9.198;2023-12-04T13:49:23;100108.31;;;3.93;100.00
11114;BME280;5610;52.154;9.198;2023-12-04T13:52:08;100104.09;;;3.89;100.00
11114;BME280;5610;52.154;9.198;2023-12-04T13:54:53;100101.41;;;3.90;100.00
11114;BME280;5610;52.154;9.198;2023-12-04T13:57:42;100104.97;;;3.89;100.00
11114;BME280;5610;52.154;9.198;2023-12-04T14:00:40;100110.50;;;3.83;100.00
11114;BME280;5610;52.154;9.198;2023-12-04T14:03:30;100105.53;;;3.75;100.00
11114;BME280;5610;52.154;9.198;2023-12-04T14:06:15;100104.63;;;3.76;100.00
11114;BME280;5610;52.154;9.198;2023-12-04T14:09:00;100105.13;;;3.64;100.00
11114;BME280;5610;52.154;9.198;2023-12-04T14:11:46;100100.84;;;3.62;100.00
11114;BME280;5610;52.154;9.198;2023-12-04T14:14:31;100104.59;;;3.56;100.00
11114;BME280;5610;52.154;9.198;2023-12-04T14:17:18;100099.88;;;3.42;100.00
11114;BME280;5610;52.154;9.198;2023-12-04T14:20:07;100083.53;;;3.34;100.00
11114;BME280;5610;52.154;9.198;2023-12-04T14:22:56;100076.81;;;3.27;100.00
11114;BME280;5610;52.154;9.198;2023-12-04T14:25:42;100074.13;;;3.28;100.00
11114;BME280;5610;52.154;9.198;2023-12-04T14:28:27;100076.91;;;3.24;100.00
11114;BME280;5610;52.154;9.198;2023-12-04T14:31:12;100072.72;;;3.20;100.00
11114;BME280;5610;52.154;9.198;2023-12-04T14:33:57;100085.75;;;3.23;100.00
11114;BME280;5610;52.154;9.198;2023-12-04T14:36:44;100077.44;;;3.12;100.00
11114;BME280;5610;52.154;9.198;2023-12-04T14:39:29;100072.88;;;3.15;100.00